createdAt,value
2023-04-18T00:01:29.466Z,100.00
2023-04-18T00:03:31.061Z,100.00
2023-04-18T00:05:32.730Z,100.00
2023-04-18T00:07:34.447Z,100.00
2023-04-18T00:09:35.931Z,100.00
2023-04-18T00:11:37.469Z,100.00
2023-04-18T00:13:39.149Z,100.00
2023-04-18T00:15:40.556Z,100.00
2023-04-18T00:17:42.016Z,100.00
2023-04-18T00:19:43.629Z,100.00
2023-04-18T00:21:45.270Z,100.00
2023-04-18T00:23:46.820Z,100.00
2023-04-18T00:25:48.785Z,100.00
2023-04-18T00:27:50.168Z,100.00
2023-04-18T00:29:51.687Z,100.00
2023-04-18T00:31:53.450Z,100.00
2023-04-18T00:33:54.855Z,100.00
2023-04-18T00:35:56.256Z,100.00
2023-04-18T00:37:58.072Z,100.00
2023-04-18T00:39:59.486Z,100.00
2023-04-18T00:42:01.922Z,100.00
2023-04-18T00:44:03.389Z,100.00
2023-04-18T00:46:04.918Z,100.00
2023-04-18T00:48:06.785Z,100.00
2023-04-18T00:50:09.668Z,100.00
2023-04-18T00:52:12.294Z,100.00
2023-04-18T00:54:14.463Z,100.00
2023-04-18T00:56:16.557Z,100.00
2023-04-18T00:58:18.014Z,100.00
2023-04-18T01:00:19.490Z,100.00
2023-04-18T01:02:21.135Z,100.00
2023-04-18T01:04:22.805Z,100.00
2023-04-18T01:06:24.539Z,100.00
2023-04-18T01:08:26.109Z,100.00
2023-04-18T01:10:28.671Z,100.00
2023-04-18T01:12:30.438Z,100.00
2023-04-18T01:14:31.946Z,100.00
2023-04-18T01:16:34.156Z,100.00
2023-04-18T01:18:35.619Z,100.00
2023-04-18T01:20:44.185Z,100.00
2023-04-18T01:22:45.594Z,100.00
2023-04-18T01:24:47.052Z,100.00
2023-04-18T01:26:48.544Z,100.00
2023-04-18T01:28:49.965Z,100.00
2023-04-18T01:30:51.495Z,100.00
2023-04-18T01:32:53.146Z,100.00
2023-04-18T01:34:54.599Z,100.00
2023-04-18T01:36:56.018Z,100.00
2023-04-18T01:38:58.127Z,100.00
2023-04-18T01:40:59.549Z,100.00
2023-04-18T01:43:01.019Z,100.00
2023-04-18T01:45:02.581Z,100.00
2023-04-18T01:47:04.007Z,100.00
2023-04-18T01:49:06.080Z,100.00
2023-04-18T01:51:07.574Z,100.00
2023-04-18T01:53:08.969Z,100.00
2023-04-18T01:55:10.619Z,100.00
2023-04-18T01:57:12.022Z,100.00
2023-04-18T01:59:13.423Z,100.00
2023-04-18T02:01:15.127Z,100.00
2023-04-18T02:03:16.769Z,100.00
2023-04-18T02:05:18.323Z,100.00
2023-04-18T02:07:19.915Z,100.00
2023-04-18T02:09:21.391Z,100.00
2023-04-18T02:11:22.780Z,100.00
2023-04-18T02:13:24.491Z,100.00
2023-04-18T02:15:25.964Z,100.00
2023-04-18T02:17:28.526Z,100.00
2023-04-18T02:19:30.436Z,100.00
2023-04-18T02:21:31.966Z,100.00
2023-04-18T02:23:33.395Z,100.00
2023-04-18T02:25:34.845Z,100.00
2023-04-18T02:27:36.421Z,100.00
2023-04-18T02:29:37.837Z,100.00
2023-04-18T02:31:41.018Z,100.00
2023-04-18T02:33:43.159Z,100.00
2023-04-18T02:35:44.558Z,100.00
2023-04-18T02:37:46.090Z,100.00
2023-04-18T02:39:47.496Z,100.00
2023-04-18T02:41:48.907Z,100.00
2023-04-18T02:43:50.482Z,100.00
2023-04-18T02:45:52.090Z,100.00
2023-04-18T02:47:56.202Z,100.00
2023-04-18T02:49:58.035Z,100.00
2023-04-18T02:51:59.615Z,100.00
2023-04-18T02:54:01.024Z,100.00
2023-04-18T02:56:02.653Z,100.00
2023-04-18T02:58:04.175Z,100.00
2023-04-18T03:00:06.329Z,100.00
2023-04-18T03:02:08.096Z,100.00
2023-04-18T03:04:09.704Z,100.00
2023-04-18T03:06:11.153Z,100.00
2023-04-18T03:08:12.657Z,100.00
2023-04-18T03:10:14.157Z,100.00
2023-04-18T03:12:15.554Z,100.00
2023-04-18T03:14:17.035Z,100.00
2023-04-18T03:16:18.621Z,100.00
2023-04-18T03:18:20.110Z,100.00
2023-04-18T03:20:21.601Z,100.00
2023-04-18T03:22:23.001Z,100.00
2023-04-18T03:24:24.381Z,100.00
2023-04-18T03:26:26.314Z,100.00
2023-04-18T03:28:27.817Z,100.00
2023-04-18T03:30:29.278Z,100.00
2023-04-18T03:32:30.797Z,100.00
2023-04-18T03:34:32.289Z,100.00
2023-04-18T03:36:33.798Z,100.00
2023-04-18T03:38:35.244Z,100.00
2023-04-18T03:40:36.727Z,100.00
2023-04-18T03:42:38.141Z,100.00
2023-04-18T03:44:39.638Z,100.00
2023-04-18T03:46:41.363Z,100.00
2023-04-18T03:48:42.879Z,100.00
2023-04-18T03:50:44.373Z,100.00
2023-04-18T03:52:45.862Z,100.00
2023-04-18T03:54:47.289Z,100.00
2023-04-18T03:56:48.780Z,100.00
2023-04-18T03:58:50.177Z,100.00
2023-04-18T04:00:51.657Z,100.00
2023-04-18T04:02:53.207Z,100.00
2023-04-18T04:04:54.796Z,100.00
2023-04-18T04:06:56.722Z,100.00
2023-04-18T04:08:58.213Z,100.00
2023-04-18T04:10:59.719Z,100.00
2023-04-18T04:13:01.140Z,100.00
2023-04-18T04:15:02.732Z,100.00
2023-04-18T04:17:04.446Z,100.00
2023-04-18T04:19:05.855Z,100.00
2023-04-18T04:21:07.265Z,100.00
2023-04-18T04:23:08.676Z,100.00
2023-04-18T04:25:10.114Z,100.00
2023-04-18T04:27:11.518Z,100.00
2023-04-18T04:29:13.211Z,100.00
2023-04-18T04:31:14.782Z,100.00
2023-04-18T04:33:20.527Z,100.00
2023-04-18T04:35:22.086Z,100.00
2023-04-18T04:37:23.502Z,100.00
2023-04-18T04:39:25.065Z,100.00
2023-04-18T04:41:26.533Z,100.00
2023-04-18T04:43:27.950Z,100.00
2023-04-18T04:45:29.534Z,100.00
2023-04-18T04:47:31.191Z,100.00
2023-04-18T04:49:32.677Z,100.00
2023-04-18T04:51:34.164Z,100.00
2023-04-18T04:53:35.797Z,100.00
2023-04-18T04:55:37.289Z,100.00
2023-04-18T04:57:38.888Z,100.00
2023-04-18T04:59:40.346Z,100.00
2023-04-18T05:01:41.781Z,100.00
2023-04-18T05:03:43.476Z,100.00
2023-04-18T05:05:46.155Z,100.00
2023-04-18T05:07:47.587Z,100.00
2023-04-18T05:09:49.087Z,100.00
2023-04-18T05:11:50.492Z,100.00
2023-04-18T05:13:51.916Z,100.00
2023-04-18T05:15:53.517Z,100.00
2023-04-18T05:17:55.052Z,100.00
2023-04-18T05:19:56.533Z,100.00
2023-04-18T05:21:58.179Z,100.00
2023-04-18T05:23:59.840Z,100.00
2023-04-18T05:26:01.261Z,100.00
2023-04-18T05:28:02.746Z,100.00
2023-04-18T05:30:04.574Z,100.00
2023-04-18T05:32:06.243Z,100.00
2023-04-18T05:34:07.855Z,100.00
2023-04-18T05:36:09.283Z,100.00
2023-04-18T05:38:10.720Z,100.00
2023-04-18T05:40:12.896Z,100.00
2023-04-18T05:42:14.437Z,100.00
2023-04-18T05:44:15.858Z,100.00
2023-04-18T05:46:17.471Z,100.00
2023-04-18T05:48:19.098Z,100.00
2023-04-18T05:50:20.544Z,100.00
2023-04-18T05:52:22.161Z,100.00
2023-04-18T05:54:24.029Z,100.00
2023-04-18T05:56:25.506Z,100.00
2023-04-18T05:58:27.106Z,100.00
2023-04-18T06:00:29.082Z,100.00
2023-04-18T06:02:30.552Z,100.00
2023-04-18T06:04:32.328Z,100.00
2023-04-18T06:06:35.156Z,100.00
2023-04-18T06:08:40.689Z,100.00
2023-04-18T06:10:42.327Z,100.00
2023-04-18T06:12:43.927Z,100.00
2023-04-18T06:14:45.374Z,100.00
2023-04-18T06:16:47.053Z,100.00
2023-04-18T06:18:48.573Z,100.00
2023-04-18T06:20:50.017Z,100.00
2023-04-18T06:22:51.511Z,100.00
2023-04-18T06:24:53.112Z,100.00
2023-04-18T06:26:54.775Z,100.00
2023-04-18T06:28:56.380Z,100.00
2023-04-18T06:30:58.089Z,100.00
2023-04-18T06:32:59.859Z,100.00
2023-04-18T06:35:01.374Z,100.00
2023-04-18T06:37:02.858Z,100.00
2023-04-18T06:39:04.288Z,100.00
2023-04-18T06:41:05.899Z,100.00
2023-04-18T06:43:07.626Z,100.00
2023-04-18T06:45:09.874Z,100.00
2023-04-18T06:47:11.633Z,100.00
2023-04-18T06:49:13.185Z,100.00
2023-04-18T06:51:14.579Z,100.00
2023-04-18T06:53:16.124Z,95.21
2023-04-18T06:55:17.799Z,97.78
2023-04-18T06:57:19.272Z,96.10
2023-04-18T06:59:20.935Z,95.07
2023-04-18T07:01:22.570Z,93.17
2023-04-18T07:03:24.231Z,91.50
2023-04-18T07:05:25.836Z,93.13
2023-04-18T07:07:27.480Z,95.52
2023-04-18T07:09:28.929Z,99.78
2023-04-18T07:11:30.431Z,95.04
2023-04-18T07:13:32.057Z,94.40
2023-04-18T07:15:36.505Z,90.54
2023-04-18T07:17:38.033Z,93.24
2023-04-18T07:19:40.933Z,92.21
2023-04-18T07:21:42.428Z,96.46
2023-04-18T07:23:44.137Z,99.15
2023-04-18T07:25:45.652Z,99.11
2023-04-18T07:27:47.049Z,100.00
2023-04-18T07:29:48.561Z,100.00
2023-04-18T07:31:51.122Z,97.56
2023-04-18T07:33:52.544Z,97.43
2023-04-18T07:35:54.047Z,96.99
2023-04-18T07:37:55.711Z,96.92
2023-04-18T07:39:57.151Z,91.79
2023-04-18T07:41:58.605Z,89.73
2023-04-18T07:44:01.381Z,90.10
2023-04-18T07:46:02.822Z,89.74
2023-04-18T07:48:05.373Z,89.28
2023-04-18T07:50:08.103Z,88.25
2023-04-18T07:52:09.552Z,89.62
2023-04-18T07:54:11.266Z,88.63
2023-04-18T07:56:13.160Z,84.96
2023-04-18T07:58:14.567Z,83.53
2023-04-18T08:00:17.577Z,87.19
2023-04-18T08:02:19.808Z,89.18
2023-04-18T08:04:21.529Z,90.26
2023-04-18T08:06:23.052Z,92.15
2023-04-18T08:08:24.473Z,92.11
2023-04-18T08:10:25.863Z,91.14
2023-04-18T08:12:27.466Z,90.87
2023-04-18T08:14:29.226Z,90.74
2023-04-18T08:16:30.717Z,90.69
2023-04-18T08:18:32.268Z,91.11
2023-04-18T08:20:35.524Z,91.40
2023-04-18T08:22:46.825Z,93.83
2023-04-18T08:25:04.888Z,92.25
2023-04-18T08:27:07.637Z,88.92
2023-04-18T08:29:09.090Z,87.09
2023-04-18T08:31:14.881Z,83.45
2023-04-18T08:33:16.511Z,84.98
2023-04-18T08:35:17.978Z,81.58
2023-04-18T08:37:20.029Z,83.84
2023-04-18T08:39:22.695Z,81.99
2023-04-18T08:41:26.503Z,78.91
2023-04-18T08:43:28.018Z,78.52
2023-04-18T08:45:29.588Z,78.75
2023-04-18T08:47:31.387Z,76.76
2023-04-18T08:49:32.978Z,76.92
2023-04-18T08:51:34.828Z,79.55
2023-04-18T08:53:36.218Z,78.71
2023-04-18T08:55:37.864Z,77.98
2023-04-18T08:57:39.359Z,78.69
2023-04-18T08:59:40.850Z,78.61
2023-04-18T09:01:53.245Z,81.40
2023-04-18T09:03:54.748Z,81.03
2023-04-18T09:06:16.690Z,79.76
2023-04-18T09:08:24.321Z,78.94
2023-04-18T09:10:31.090Z,78.25
2023-04-18T09:12:33.234Z,79.83
2023-04-18T09:14:35.450Z,79.73
2023-04-18T09:16:46.361Z,79.60
2023-04-18T09:19:10.894Z,79.42
2023-04-18T09:21:19.112Z,80.30
2023-04-18T09:23:24.265Z,78.42
2023-04-18T09:25:27.251Z,79.54
2023-04-18T09:27:34.603Z,79.71
2023-04-18T09:29:48.187Z,80.45
2023-04-18T09:32:00.458Z,80.95
2023-04-18T09:34:02.069Z,80.73
2023-04-18T09:36:18.230Z,79.55
2023-04-18T09:38:19.946Z,80.04
2023-04-18T09:40:21.783Z,78.43
2023-04-18T09:42:23.189Z,79.01
2023-04-18T09:44:24.632Z,80.70
2023-04-18T09:46:27.325Z,79.81
2023-04-18T09:48:28.894Z,81.03
2023-04-18T09:50:32.126Z,79.39
2023-04-18T09:52:35.414Z,80.58
2023-04-18T09:54:38.893Z,80.52
2023-04-18T09:56:44.173Z,79.26
2023-04-18T09:58:47.334Z,77.71
2023-04-18T10:00:53.764Z,76.63
2023-04-18T10:03:08.662Z,75.89
2023-04-18T10:05:10.852Z,76.55
2023-04-18T10:07:13.439Z,77.31
2023-04-18T10:09:15.393Z,76.65
2023-04-18T10:11:19.226Z,77.59
2023-04-18T10:13:22.664Z,77.34
2023-04-18T10:15:26.579Z,76.35
2023-04-18T10:17:29.676Z,74.69
2023-04-18T10:19:31.824Z,73.29
2023-04-18T10:21:34.220Z,71.83
2023-04-18T10:23:37.954Z,71.29
2023-04-18T10:25:39.322Z,72.54
2023-04-18T10:27:49.549Z,73.07
2023-04-18T10:29:53.985Z,75.54
2023-04-18T10:31:55.492Z,73.74
2023-04-18T10:34:05.157Z,73.20
2023-04-18T10:36:10.628Z,72.39
2023-04-18T10:38:17.902Z,72.47
2023-04-18T10:40:33.444Z,73.32
2023-04-18T10:42:46.838Z,71.60
2023-04-18T10:45:20.745Z,69.00
2023-04-18T10:47:22.274Z,69.36
2023-04-18T10:49:30.265Z,69.64
2023-04-18T10:51:33.667Z,69.33
2023-04-18T10:53:35.060Z,68.04
2023-04-18T10:55:36.651Z,70.65
2023-04-18T10:57:46.238Z,70.21
2023-04-18T10:59:52.166Z,70.84
2023-04-18T11:01:56.681Z,72.92
2023-04-18T11:03:58.864Z,73.65
2023-04-18T11:06:03.808Z,72.83
2023-04-18T11:08:05.806Z,72.14
2023-04-18T11:10:08.968Z,70.69
2023-04-18T11:12:11.319Z,70.90
2023-04-18T11:14:13.211Z,70.61
2023-04-18T11:16:26.591Z,67.93
2023-04-18T11:18:39.952Z,68.34
2023-04-18T11:20:49.423Z,67.37
2023-04-18T11:22:52.110Z,68.16
2023-04-18T11:25:00.825Z,67.96
2023-04-18T11:27:04.111Z,69.22
2023-04-18T11:29:06.335Z,69.53
2023-04-18T11:31:07.962Z,68.81
2023-04-18T11:33:10.717Z,67.95
2023-04-18T11:35:14.158Z,67.42
2023-04-18T11:37:15.639Z,68.34
2023-04-18T11:39:17.664Z,67.40
2023-04-18T11:41:19.244Z,65.00
2023-04-18T11:43:25.024Z,64.50
2023-04-18T11:45:26.430Z,66.07
2023-04-18T11:47:29.834Z,66.97
2023-04-18T11:49:32.544Z,67.99
2023-04-18T11:51:35.236Z,67.66
2023-04-18T11:53:38.615Z,67.27
2023-04-18T11:55:40.188Z,68.04
2023-04-18T11:57:41.634Z,68.39
2023-04-18T11:59:48.815Z,68.45
2023-04-18T12:02:14.843Z,66.56
2023-04-18T12:04:17.567Z,64.64
2023-04-18T12:06:19.739Z,64.16
2023-04-18T12:08:21.490Z,64.43
2023-04-18T12:10:28.789Z,64.99
2023-04-18T12:12:30.699Z,65.03
2023-04-18T12:14:35.264Z,64.73
2023-04-18T12:16:36.696Z,64.74
2023-04-18T12:18:38.217Z,64.14
2023-04-18T12:20:42.053Z,64.37
2023-04-18T12:22:48.313Z,62.44
2023-04-18T12:25:14.288Z,62.94
2023-04-18T12:27:15.769Z,63.34
2023-04-18T12:29:17.203Z,62.82
2023-04-18T12:31:18.620Z,62.92
2023-04-18T12:33:20.101Z,63.87
2023-04-18T12:35:22.723Z,63.50
2023-04-18T12:37:24.127Z,62.50
2023-04-18T12:39:25.735Z,61.50
2023-04-18T12:41:27.123Z,61.56
2023-04-18T12:43:28.771Z,64.19
2023-04-18T12:45:30.305Z,64.85
2023-04-18T12:47:31.952Z,63.09
2023-04-18T12:49:33.511Z,62.09
2023-04-18T12:51:34.971Z,62.53
2023-04-18T12:53:36.391Z,62.56
2023-04-18T12:55:37.823Z,62.10
2023-04-18T12:57:39.584Z,61.67
2023-04-18T12:59:40.972Z,60.32
2023-04-18T13:01:42.361Z,60.83
2023-04-18T13:03:45.504Z,62.50
2023-04-18T13:05:52.261Z,61.68
2023-04-18T13:08:01.601Z,60.29
2023-04-18T13:10:12.500Z,59.56
2023-04-18T13:12:14.390Z,57.71
2023-04-18T13:14:15.966Z,58.54
2023-04-18T13:16:17.481Z,55.32
2023-04-18T13:18:18.896Z,56.91
2023-04-18T13:20:20.410Z,55.51
2023-04-18T13:22:22.041Z,57.72
2023-04-18T13:24:23.493Z,57.29
2023-04-18T13:26:24.981Z,57.79
2023-04-18T13:28:26.376Z,59.92
2023-04-18T13:30:27.985Z,57.40
2023-04-18T13:32:29.392Z,54.33
2023-04-18T13:34:30.839Z,54.78
2023-04-18T13:36:32.294Z,54.42
2023-04-18T13:38:34.172Z,55.59
2023-04-18T13:40:35.653Z,54.75
2023-04-18T13:44:57.568Z,55.76
2023-04-18T13:47:01.043Z,54.24
2023-04-18T13:49:02.468Z,52.58
2023-04-18T13:51:04.251Z,53.97
2023-04-18T13:53:05.788Z,54.21
2023-04-18T13:55:07.777Z,52.09
2023-04-18T13:57:09.447Z,53.03
2023-04-18T13:59:11.027Z,52.49
2023-04-18T14:01:12.414Z,51.85
2023-04-18T14:03:14.161Z,50.07
2023-04-18T14:05:15.716Z,48.94
2023-04-18T14:07:17.120Z,50.39
2023-04-18T14:09:18.774Z,49.48
2023-04-18T14:11:20.788Z,50.04
2023-04-18T14:13:22.239Z,49.67
2023-04-18T14:18:19.943Z,49.15
2023-04-18T14:20:21.367Z,49.99
2023-04-18T14:22:22.767Z,49.71
2023-04-18T14:24:24.362Z,50.19
2023-04-18T14:26:25.843Z,51.18
2023-04-18T14:28:27.309Z,50.74
2023-04-18T14:30:28.846Z,52.04
2023-04-18T14:32:30.309Z,53.51
2023-04-18T14:34:33.978Z,54.15
2023-04-18T14:36:36.761Z,54.66
2023-04-18T14:38:38.177Z,54.16
2023-04-18T14:40:39.629Z,55.00
2023-04-18T14:42:41.182Z,55.22
2023-04-18T14:44:42.590Z,52.58
2023-04-18T14:46:44.069Z,53.65
2023-04-18T14:48:46.160Z,53.92
2023-04-18T14:50:56.277Z,53.59
2023-04-18T14:52:57.789Z,53.63
2023-04-18T14:54:59.364Z,53.96
2023-04-18T14:57:01.065Z,53.51
2023-04-18T14:59:02.713Z,53.65
2023-04-18T15:01:04.765Z,55.34
2023-04-18T15:03:08.266Z,55.81
2023-04-18T15:05:12.321Z,58.38
2023-04-18T15:07:13.976Z,58.18
2023-04-18T15:09:15.452Z,57.65
2023-04-18T15:11:16.868Z,56.05
2023-04-18T15:13:18.404Z,55.71
2023-04-18T15:15:19.865Z,56.10
2023-04-18T15:17:21.363Z,55.68
2023-04-18T15:19:23.320Z,56.06
2023-04-18T15:21:24.730Z,56.18
2023-04-18T15:23:26.271Z,56.30
2023-04-18T15:25:27.841Z,55.41
2023-04-18T15:27:29.300Z,55.60
2023-04-18T15:29:30.729Z,55.35
2023-04-18T15:31:32.686Z,55.88
2023-04-18T15:33:34.121Z,56.24
2023-04-18T15:35:35.542Z,56.27
2023-04-18T15:37:37.347Z,57.40
2023-04-18T15:39:38.755Z,57.84
2023-04-18T15:41:40.246Z,57.61
2023-04-18T15:43:41.865Z,57.80
2023-04-18T15:45:43.323Z,56.29
2023-04-18T15:47:44.812Z,56.54
2023-04-18T15:49:46.488Z,56.79
2023-04-18T15:51:47.930Z,57.10
2023-04-18T15:53:49.336Z,56.36
2023-04-18T15:55:50.909Z,56.95
2023-04-18T15:57:52.287Z,57.69
2023-04-18T15:59:53.707Z,58.23
2023-04-18T16:01:55.489Z,56.23
2023-04-18T16:03:57.073Z,56.54
2023-04-18T16:05:58.577Z,56.41
2023-04-18T16:08:00.175Z,57.05
2023-04-18T16:10:01.663Z,56.55
2023-04-18T16:12:03.375Z,56.70
2023-04-18T16:14:05.052Z,56.52
2023-04-18T16:16:06.832Z,56.66
2023-04-18T16:18:08.517Z,57.67
2023-04-18T16:20:10.240Z,58.44
2023-04-18T16:22:11.822Z,59.45
2023-04-18T16:24:15.253Z,60.57
2023-04-18T16:26:16.894Z,59.15
2023-04-18T16:28:18.312Z,59.80
2023-04-18T16:30:19.835Z,59.89
2023-04-18T16:32:21.651Z,59.13
2023-04-18T16:34:23.194Z,59.83
2023-04-18T16:36:24.692Z,60.22
2023-04-18T16:38:26.285Z,59.86
2023-04-18T16:40:27.682Z,60.87
2023-04-18T16:42:29.106Z,60.03
2023-04-18T16:44:30.778Z,60.12
2023-04-18T16:46:32.517Z,59.49
2023-04-18T16:48:34.102Z,60.19
2023-04-18T16:50:35.698Z,60.35
2023-04-18T16:52:37.082Z,61.31
2023-04-18T16:54:38.513Z,61.81
2023-04-18T16:56:40.116Z,61.98
2023-04-18T16:58:41.526Z,61.49
2023-04-18T17:00:42.969Z,61.71
2023-04-18T17:02:44.833Z,61.43
2023-04-18T17:04:46.342Z,62.21
2023-04-18T17:06:48.125Z,62.55
2023-04-18T17:08:50.658Z,63.09
2023-04-18T17:10:52.277Z,63.16
2023-04-18T17:12:53.773Z,63.85
2023-04-18T17:14:55.463Z,63.55
2023-04-18T17:16:56.858Z,64.35
2023-04-18T17:18:58.243Z,64.84
2023-04-18T17:20:59.828Z,65.47
2023-04-18T17:23:01.263Z,64.47
2023-04-18T17:25:03.041Z,65.74
2023-04-18T17:27:04.820Z,65.28
2023-04-18T17:29:06.280Z,65.81
2023-04-18T17:31:07.859Z,65.72
2023-04-18T17:33:10.328Z,65.81
2023-04-18T17:35:12.631Z,65.91
2023-04-18T17:37:14.050Z,66.35
2023-04-18T17:39:15.694Z,65.15
2023-04-18T17:41:18.864Z,67.76
2023-04-18T17:43:20.268Z,67.06
2023-04-18T17:45:21.845Z,68.74
2023-04-18T17:47:23.381Z,69.10
2023-04-18T17:49:24.840Z,69.33
2023-04-18T17:51:26.465Z,69.41
2023-04-18T17:53:29.157Z,69.61
2023-04-18T17:55:31.616Z,71.01
2023-04-18T17:57:33.426Z,73.01
2023-04-18T17:59:34.834Z,72.79
2023-04-18T18:01:36.277Z,72.02
2023-04-18T18:03:38.426Z,72.62
2023-04-18T18:05:40.988Z,73.41
2023-04-18T18:07:42.386Z,74.27
2023-04-18T18:09:44.418Z,74.75
2023-04-18T18:11:45.839Z,75.13
2023-04-18T18:13:47.388Z,76.72
2023-04-18T18:15:49.078Z,75.65
2023-04-18T18:17:51.403Z,76.90
2023-04-18T18:19:52.830Z,77.06
2023-04-18T18:21:54.854Z,77.75
2023-04-18T18:23:56.248Z,77.79
2023-04-18T18:25:57.715Z,79.09
2023-04-18T18:27:59.304Z,80.35
2023-04-18T18:30:00.711Z,80.51
2023-04-18T18:32:02.128Z,82.88
2023-04-18T18:34:04.126Z,82.79
2023-04-18T18:36:05.777Z,84.32
2023-04-18T18:38:07.206Z,84.94
2023-04-18T18:40:09.278Z,85.10
2023-04-18T18:42:10.702Z,84.33
2023-04-18T18:44:12.131Z,85.11
2023-04-18T18:46:14.860Z,86.08
2023-04-18T18:48:16.287Z,85.59
2023-04-18T18:50:17.839Z,86.08
2023-04-18T18:52:19.405Z,85.87
2023-04-18T18:54:20.809Z,85.45
2023-04-18T18:56:22.227Z,85.89
2023-04-18T18:58:23.922Z,85.88
2023-04-18T19:00:25.364Z,85.18
2023-04-18T19:02:26.862Z,86.73
2023-04-18T19:04:28.913Z,86.01
2023-04-18T19:06:30.379Z,86.39
2023-04-18T19:08:31.794Z,87.29
2023-04-18T19:10:33.584Z,87.58
2023-04-18T19:12:35.034Z,88.50
2023-04-18T19:14:36.438Z,88.77
2023-04-18T19:16:38.388Z,88.84
2023-04-18T19:18:39.856Z,90.05
2023-04-18T19:20:41.342Z,89.81
2023-04-18T19:22:42.875Z,89.86
2023-04-18T19:24:44.328Z,90.31
2023-04-18T19:26:45.734Z,89.46
2023-04-18T19:28:47.295Z,91.85
2023-04-18T19:30:49.496Z,91.64
2023-04-18T19:32:50.995Z,91.51
2023-04-18T19:34:52.639Z,90.55
2023-04-18T19:36:54.062Z,90.79
2023-04-18T19:38:55.452Z,91.80
2023-04-18T19:40:57.087Z,91.17
2023-04-18T19:42:58.473Z,91.17
2023-04-18T19:44:59.877Z,92.76
2023-04-18T19:47:01.477Z,91.87
2023-04-18T19:49:02.942Z,90.85
2023-04-18T19:51:04.347Z,90.58
2023-04-18T19:53:06.061Z,92.63
2023-04-18T19:55:07.911Z,90.77
2023-04-18T19:57:09.527Z,90.94
2023-04-18T19:59:11.188Z,91.60
2023-04-18T20:01:14.128Z,91.95
2023-04-18T20:03:15.718Z,93.00
2023-04-18T20:05:17.707Z,91.97
2023-04-18T20:07:19.667Z,93.13
2023-04-18T20:09:21.181Z,92.74
2023-04-18T20:11:22.942Z,92.56
2023-04-18T20:13:24.351Z,93.35
2023-04-18T20:15:25.847Z,93.38
2023-04-18T20:17:27.587Z,92.88
2023-04-18T20:19:28.998Z,93.00
2023-04-18T20:21:30.471Z,93.85
2023-04-18T20:23:31.952Z,94.77
2023-04-18T20:25:33.956Z,95.63
2023-04-18T20:27:35.565Z,95.50
2023-04-18T20:29:37.042Z,96.15
2023-04-18T20:31:38.479Z,98.68
2023-04-18T20:33:39.980Z,100.00
2023-04-18T20:35:41.648Z,100.00
2023-04-18T20:37:43.122Z,100.00
2023-04-18T20:39:44.528Z,100.00
2023-04-18T20:41:49.797Z,100.00
2023-04-18T20:43:51.220Z,100.00
2023-04-18T20:45:52.973Z,100.00
2023-04-18T20:47:54.711Z,100.00
2023-04-18T20:49:56.140Z,100.00
2023-04-18T20:51:57.533Z,100.00
2023-04-18T20:53:59.213Z,100.00
2023-04-18T20:56:02.752Z,100.00
2023-04-18T20:58:04.154Z,100.00
2023-04-18T21:00:06.909Z,100.00
2023-04-18T21:02:08.501Z,100.00
2023-04-18T21:04:10.162Z,100.00
2023-04-18T21:06:11.836Z,100.00
2023-04-18T21:08:14.263Z,100.00
2023-04-18T21:10:15.681Z,100.00
2023-04-18T21:12:17.294Z,100.00
2023-04-18T21:14:18.710Z,100.00
2023-04-18T21:16:20.154Z,100.00
2023-04-18T21:18:21.750Z,100.00
2023-04-18T21:20:23.244Z,100.00
2023-04-18T21:22:24.727Z,100.00
2023-04-18T21:24:26.276Z,100.00
2023-04-18T21:26:27.728Z,100.00
2023-04-18T21:28:29.124Z,100.00
2023-04-18T21:30:30.868Z,100.00
2023-04-18T21:32:32.332Z,100.00
2023-04-18T21:34:33.721Z,100.00
2023-04-18T21:36:35.608Z,100.00
2023-04-18T21:38:37.042Z,100.00
2023-04-18T21:40:38.447Z,100.00
2023-04-18T21:42:40.032Z,100.00
2023-04-18T21:44:41.437Z,100.00
2023-04-18T21:46:42.833Z,100.00
2023-04-18T21:48:45.908Z,100.00
2023-04-18T21:50:53.914Z,100.00
2023-04-18T21:52:55.310Z,100.00
2023-04-18T21:54:56.852Z,100.00
2023-04-18T21:56:58.246Z,100.00
2023-04-18T21:58:59.776Z,100.00
2023-04-18T22:01:02.289Z,100.00
2023-04-18T22:03:03.876Z,100.00
2023-04-18T22:05:05.830Z,100.00
2023-04-18T22:07:07.483Z,100.00
2023-04-18T22:09:08.935Z,100.00
2023-04-18T22:11:10.345Z,100.00
2023-04-18T22:13:12.171Z,100.00
2023-04-18T22:15:13.587Z,100.00
2023-04-18T22:17:15.087Z,100.00
2023-04-18T22:19:17.253Z,100.00
2023-04-18T22:21:18.690Z,100.00
2023-04-18T22:23:20.094Z,100.00
2023-04-18T22:25:21.907Z,100.00
2023-04-18T22:27:23.304Z,100.00
2023-04-18T22:29:24.729Z,100.00
2023-04-18T22:31:26.361Z,100.00
2023-04-18T22:33:28.101Z,100.00
2023-04-18T22:35:29.497Z,100.00
2023-04-18T22:37:31.224Z,100.00
2023-04-18T22:39:32.633Z,100.00
2023-04-18T22:41:34.039Z,100.00
2023-04-18T22:43:35.697Z,100.00
2023-04-18T22:45:37.103Z,100.00
2023-04-18T22:47:38.646Z,100.00
2023-04-18T22:49:40.222Z,100.00
2023-04-18T22:51:41.602Z,100.00
2023-04-18T22:53:42.993Z,100.00
2023-04-18T22:55:45.163Z,100.00
2023-04-18T22:57:46.579Z,100.00
2023-04-18T22:59:48.005Z,100.00
2023-04-18T23:01:49.716Z,100.00
2023-04-18T23:03:51.352Z,100.00
2023-04-18T23:05:52.895Z,100.00
2023-04-18T23:07:54.482Z,100.00
2023-04-18T23:09:55.943Z,100.00
2023-04-18T23:11:57.369Z,100.00
2023-04-18T23:13:59.417Z,100.00
2023-04-18T23:16:00.865Z,100.00
2023-04-18T23:18:02.393Z,100.00
2023-04-18T23:20:05.051Z,100.00
2023-04-18T23:22:06.521Z,100.00
2023-04-18T23:24:08.109Z,100.00
2023-04-18T23:26:13.688Z,100.00
2023-04-18T23:28:15.139Z,100.00
2023-04-18T23:30:16.599Z,100.00
2023-04-18T23:32:18.131Z,100.00
2023-04-18T23:34:19.540Z,100.00
2023-04-18T23:36:20.937Z,100.00
2023-04-18T23:38:22.665Z,100.00
2023-04-18T23:40:24.228Z,100.00
2023-04-18T23:42:25.708Z,100.00
2023-04-18T23:44:27.321Z,100.00
2023-04-18T23:46:28.793Z,100.00
2023-04-18T23:48:30.187Z,100.00
2023-04-18T23:50:31.691Z,100.00
2023-04-18T23:52:33.424Z,100.00
2023-04-18T23:54:34.806Z,100.00
2023-04-18T23:56:36.354Z,100.00
2023-04-18T23:58:37.807Z,100.00
